createdAt,value
2018-03-31T00:01:16.885Z,14.37
2018-03-31T00:03:44.716Z,14.17
2018-03-31T00:06:12.418Z,14.70
2018-03-31T00:08:40.653Z,14.30
2018-03-31T00:11:09.336Z,14.97
2018-03-31T00:13:37.210Z,15.60
2018-03-31T00:16:05.533Z,14.57
2018-03-31T00:18:33.604Z,14.83
2018-03-31T00:21:01.432Z,14.80
2018-03-31T00:23:29.289Z,14.70
2018-03-31T00:25:57.197Z,14.70
2018-03-31T00:28:24.861Z,13.90
2018-03-31T00:30:52.515Z,15.00
2018-03-31T00:33:20.186Z,15.03
2018-03-31T00:35:47.849Z,15.73
2018-03-31T00:38:15.666Z,13.50
2018-03-31T00:40:43.789Z,14.73
2018-03-31T00:43:11.622Z,14.60
2018-03-31T00:45:39.522Z,13.23
2018-03-31T00:48:07.240Z,15.30
2018-03-31T00:50:34.839Z,14.33
2018-03-31T00:53:03.042Z,13.50
2018-03-31T00:55:30.804Z,14.43
2018-03-31T00:57:58.631Z,14.73
2018-03-31T01:00:26.659Z,15.30
2018-03-31T01:02:54.376Z,14.67
2018-03-31T01:05:22.211Z,15.63
2018-03-31T01:07:50.320Z,16.00
2018-03-31T01:10:17.979Z,13.80
2018-03-31T01:12:45.856Z,14.37
2018-03-31T01:15:13.342Z,14.43
2018-03-31T01:17:40.967Z,16.07
2018-03-31T01:20:08.885Z,14.33
2018-03-31T01:22:36.849Z,14.70
2018-03-31T01:25:04.562Z,13.77
2018-03-31T01:27:32.435Z,15.80
2018-03-31T01:30:00.089Z,13.80
2018-03-31T01:32:27.911Z,14.60
2018-03-31T01:34:55.652Z,13.63
2018-03-31T01:37:23.322Z,15.13
2018-03-31T01:39:50.940Z,15.87
2018-03-31T01:42:18.612Z,14.80
2018-03-31T01:44:46.192Z,15.57
2018-03-31T01:47:14.149Z,15.43
2018-03-31T01:49:41.847Z,14.80
2018-03-31T01:52:09.662Z,15.60
2018-03-31T01:54:37.528Z,13.90
2018-03-31T01:57:05.194Z,15.20
2018-03-31T01:59:33.046Z,15.30
2018-03-31T02:02:00.721Z,14.40
2018-03-31T02:04:28.379Z,15.00
2018-03-31T02:06:56.205Z,15.07
2018-03-31T02:09:23.908Z,15.37
2018-03-31T02:11:51.778Z,15.10
2018-03-31T02:14:19.605Z,14.80
2018-03-31T02:16:47.569Z,14.93
2018-03-31T02:19:15.244Z,14.57
2018-03-31T02:21:42.826Z,16.73
2018-03-31T02:24:10.640Z,16.57
2018-03-31T02:26:38.755Z,15.83
2018-03-31T02:29:06.594Z,15.73
2018-03-31T02:31:34.569Z,15.60
2018-03-31T02:34:02.220Z,17.10
2018-03-31T02:36:30.095Z,14.97
2018-03-31T02:38:57.692Z,16.50
2018-03-31T02:41:25.774Z,15.60
2018-03-31T02:43:54.043Z,16.23
2018-03-31T02:46:22.106Z,14.53
2018-03-31T02:48:50.022Z,14.47
2018-03-31T02:51:17.816Z,14.43
2018-03-31T02:53:45.904Z,15.77
2018-03-31T02:56:13.568Z,15.17
2018-03-31T02:58:41.439Z,15.30
2018-03-31T03:01:09.680Z,15.07
2018-03-31T03:03:37.590Z,15.30
2018-03-31T03:06:05.461Z,14.57
2018-03-31T03:08:33.174Z,15.20
2018-03-31T03:11:00.778Z,17.10
2018-03-31T03:13:28.588Z,15.13
2018-03-31T03:15:56.305Z,15.07
2018-03-31T03:18:23.965Z,14.87
2018-03-31T03:20:51.624Z,15.83
2018-03-31T03:23:19.497Z,14.37
2018-03-31T03:25:47.151Z,14.80
2018-03-31T03:28:15.024Z,13.60
2018-03-31T03:30:42.839Z,15.10
2018-03-31T03:33:10.830Z,14.53
2018-03-31T03:35:38.622Z,15.63
2018-03-31T03:38:06.287Z,14.73
2018-03-31T03:40:34.056Z,14.37
2018-03-31T03:43:02.608Z,14.47
2018-03-31T03:45:30.899Z,16.50
2018-03-31T03:47:58.945Z,14.53
2018-03-31T03:50:26.420Z,14.40
2018-03-31T03:52:54.302Z,13.87
2018-03-31T03:55:22.171Z,13.57
2018-03-31T03:57:49.982Z,14.90
2018-03-31T04:03:13.137Z,14.40
2018-03-31T04:05:40.513Z,14.40
2018-03-31T04:08:07.884Z,14.97
2018-03-31T04:10:35.240Z,14.53
2018-03-31T04:13:02.612Z,14.23
2018-03-31T04:15:30.090Z,14.90
2018-03-31T04:17:57.468Z,15.13
2018-03-31T04:20:24.860Z,14.10
2018-03-31T04:22:52.233Z,15.23
2018-03-31T04:25:19.666Z,14.77
2018-03-31T04:27:47.024Z,14.10
2018-03-31T04:30:14.448Z,14.20
2018-03-31T04:32:41.799Z,14.50
2018-03-31T04:35:09.570Z,14.53
2018-03-31T04:37:36.917Z,13.83
2018-03-31T04:40:04.313Z,13.57
2018-03-31T04:42:31.657Z,13.53
2018-03-31T04:44:59.047Z,14.40
2018-03-31T04:47:26.604Z,15.23
2018-03-31T04:49:54.389Z,14.43
2018-03-31T04:52:22.468Z,14.00
2018-03-31T04:54:49.810Z,13.97
2018-03-31T04:57:17.177Z,15.03
2018-03-31T04:59:44.768Z,14.80
2018-03-31T05:02:12.165Z,14.60
2018-03-31T05:04:39.832Z,14.90
2018-03-31T05:07:07.281Z,15.17
2018-03-31T05:09:34.645Z,14.83
2018-03-31T05:12:02.053Z,14.40
2018-03-31T05:14:29.757Z,14.67
2018-03-31T05:16:57.352Z,14.60
2018-03-31T05:19:24.794Z,14.97
2018-03-31T05:21:53.311Z,14.83
2018-03-31T05:24:21.025Z,15.70
2018-03-31T05:26:49.832Z,15.13
2018-03-31T05:29:18.257Z,14.17
2018-03-31T05:31:46.068Z,14.30
2018-03-31T05:34:14.257Z,16.30
2018-03-31T05:36:41.979Z,15.63
2018-03-31T05:39:10.417Z,15.87
2018-03-31T05:41:38.349Z,15.73
2018-03-31T05:44:06.637Z,15.77
2018-03-31T05:46:34.307Z,15.27
2018-03-31T05:49:01.679Z,15.50
2018-03-31T05:51:29.081Z,18.23
2018-03-31T05:53:56.556Z,16.93
2018-03-31T05:56:23.941Z,14.90
2018-03-31T05:58:51.431Z,16.17
2018-03-31T06:01:18.794Z,14.30
2018-03-31T06:03:46.168Z,15.37
2018-03-31T06:06:13.545Z,16.50
2018-03-31T06:08:41.052Z,13.47
2018-03-31T06:11:08.414Z,16.10
2018-03-31T06:13:35.953Z,15.03
2018-03-31T06:16:03.300Z,17.03
2018-03-31T06:18:30.660Z,15.67
2018-03-31T06:20:58.147Z,15.67
2018-03-31T06:23:25.539Z,15.37
2018-03-31T06:25:52.890Z,15.03
2018-03-31T06:28:20.424Z,16.63
2018-03-31T06:30:47.762Z,16.63
2018-03-31T06:33:15.125Z,16.63
2018-03-31T06:35:42.489Z,16.00
2018-03-31T06:38:10.093Z,18.33
2018-03-31T06:40:37.464Z,18.23
2018-03-31T06:43:04.809Z,17.60
2018-03-31T06:45:32.266Z,17.87
2018-03-31T06:47:59.606Z,17.47
2018-03-31T06:50:26.960Z,17.30
2018-03-31T06:52:54.292Z,18.87
2018-03-31T06:55:21.779Z,19.60
2018-03-31T06:57:49.331Z,19.00
2018-03-31T07:00:16.708Z,19.83
2018-03-31T07:02:44.048Z,20.23
2018-03-31T07:05:11.413Z,19.97
2018-03-31T07:07:38.833Z,19.77
2018-03-31T07:10:06.249Z,19.80
2018-03-31T07:12:33.625Z,20.57
2018-03-31T07:15:01.029Z,18.73
2018-03-31T07:17:28.426Z,18.60
2018-03-31T07:19:55.792Z,21.00
2018-03-31T07:22:23.170Z,21.30
2018-03-31T07:24:50.520Z,19.67
2018-03-31T07:27:18.085Z,18.93
2018-03-31T07:29:45.468Z,19.53
2018-03-31T07:32:12.939Z,20.80
2018-03-31T07:34:40.276Z,19.87
2018-03-31T07:37:07.753Z,20.70
2018-03-31T07:39:35.101Z,20.30
2018-03-31T07:42:02.508Z,21.53
2018-03-31T07:44:32.765Z,20.20
2018-03-31T07:47:00.144Z,20.50
2018-03-31T07:49:27.497Z,20.77
2018-03-31T07:51:54.919Z,19.97
2018-03-31T07:54:25.044Z,21.13
2018-03-31T07:56:52.433Z,21.10
2018-03-31T07:59:19.760Z,20.80
2018-03-31T08:01:47.165Z,21.47
2018-03-31T08:04:14.501Z,21.57
2018-03-31T08:06:41.926Z,22.03
2018-03-31T08:09:09.303Z,23.00
2018-03-31T08:11:36.712Z,21.27
2018-03-31T08:14:04.049Z,21.20
2018-03-31T08:16:31.450Z,21.43
2018-03-31T08:18:58.772Z,21.67
2018-03-31T08:21:26.232Z,20.23
2018-03-31T08:23:53.755Z,22.10
2018-03-31T08:26:21.130Z,22.37
2018-03-31T08:28:48.456Z,20.37
2018-03-31T08:31:15.847Z,21.20
2018-03-31T08:33:43.172Z,21.90
2018-03-31T08:36:10.577Z,21.10
2018-03-31T08:38:37.940Z,20.43
2018-03-31T08:41:05.330Z,22.17
2018-03-31T08:43:32.704Z,21.50
2018-03-31T08:46:00.126Z,21.67
2018-03-31T08:48:27.502Z,20.37
2018-03-31T08:50:54.896Z,22.10
2018-03-31T08:53:22.243Z,23.17
2018-03-31T08:55:49.704Z,23.00
2018-03-31T08:58:17.052Z,22.67
2018-03-31T09:00:44.425Z,22.13
2018-03-31T09:03:11.934Z,23.90
2018-03-31T09:05:39.411Z,23.57
2018-03-31T09:08:06.789Z,21.97
2018-03-31T09:10:34.132Z,22.53
2018-03-31T09:13:01.502Z,23.03
2018-03-31T09:15:28.859Z,24.00
2018-03-31T09:17:56.232Z,22.33
2018-03-31T09:20:23.818Z,22.07
2018-03-31T09:22:51.308Z,23.67
2018-03-31T09:25:18.648Z,22.43
2018-03-31T09:27:46.045Z,23.13
2018-03-31T09:30:13.397Z,23.90
2018-03-31T09:32:40.761Z,24.30
2018-03-31T09:35:08.120Z,23.20
2018-03-31T09:37:35.630Z,23.17
2018-03-31T09:40:03.024Z,23.83
2018-03-31T09:42:30.420Z,23.33
2018-03-31T09:44:57.841Z,24.13
2018-03-31T09:47:25.216Z,25.80
2018-03-31T09:49:52.621Z,24.60
2018-03-31T09:52:20.213Z,25.57
2018-03-31T09:54:47.572Z,23.90
2018-03-31T09:57:14.917Z,26.37
2018-03-31T09:59:42.329Z,22.93
2018-03-31T10:02:09.677Z,23.90
2018-03-31T10:04:43.520Z,25.30
2018-03-31T10:07:10.889Z,26.23
2018-03-31T10:09:38.300Z,24.83
2018-03-31T10:12:05.879Z,24.13
2018-03-31T10:14:33.268Z,23.87
2018-03-31T10:17:00.739Z,24.40
2018-03-31T10:19:28.116Z,27.03
2018-03-31T10:21:55.501Z,26.60
2018-03-31T10:24:22.973Z,27.50
2018-03-31T10:26:50.724Z,26.70
2018-03-31T10:29:18.154Z,27.03
2018-03-31T10:31:45.513Z,24.97
2018-03-31T10:34:12.840Z,26.17
2018-03-31T10:36:40.244Z,26.50
2018-03-31T10:39:07.768Z,26.00
2018-03-31T10:41:35.516Z,25.20
2018-03-31T10:44:02.865Z,25.60
2018-03-31T10:46:30.292Z,25.43
2018-03-31T10:48:57.612Z,24.33
2018-03-31T10:51:24.980Z,27.10
2018-03-31T10:53:52.343Z,25.30
2018-03-31T10:56:19.716Z,23.50
2018-03-31T10:58:47.097Z,24.10
2018-03-31T11:01:14.474Z,25.00
2018-03-31T11:03:41.836Z,24.90
2018-03-31T11:06:09.221Z,23.87
2018-03-31T11:08:36.572Z,25.00
2018-03-31T11:11:03.992Z,25.07
2018-03-31T11:13:31.373Z,21.80
2018-03-31T11:15:58.933Z,24.70
2018-03-31T11:18:26.341Z,23.27
2018-03-31T11:20:53.713Z,22.67
2018-03-31T11:23:21.056Z,22.97
2018-03-31T11:25:55.237Z,23.23
2018-03-31T11:28:22.620Z,23.67
2018-03-31T11:30:50.122Z,22.80
2018-03-31T11:33:17.466Z,23.70
2018-03-31T11:35:44.835Z,23.20
2018-03-31T11:38:12.216Z,23.17
2018-03-31T11:40:39.577Z,25.40
2018-03-31T11:43:07.061Z,23.90
2018-03-31T11:45:34.405Z,23.83
2018-03-31T11:48:01.770Z,22.10
2018-03-31T11:50:29.167Z,24.40
2018-03-31T11:52:56.564Z,22.40
2018-03-31T11:55:23.932Z,22.40
2018-03-31T11:57:51.284Z,24.30
2018-03-31T12:00:18.648Z,23.97
2018-03-31T12:02:46.004Z,23.13
2018-03-31T12:05:13.369Z,22.70
2018-03-31T12:07:40.773Z,22.03
2018-03-31T12:10:08.143Z,22.57
2018-03-31T12:12:35.504Z,23.43
2018-03-31T12:15:03.071Z,21.80
2018-03-31T12:17:30.447Z,23.90
2018-03-31T12:19:57.799Z,23.13
2018-03-31T12:22:25.209Z,23.90
2018-03-31T12:24:53.122Z,24.87
2018-03-31T12:27:20.492Z,25.00
2018-03-31T12:32:21.489Z,24.50
2018-03-31T12:34:48.933Z,24.67
2018-03-31T12:37:16.335Z,24.37
2018-03-31T12:39:43.780Z,24.73
2018-03-31T12:42:11.212Z,25.77
2018-03-31T12:44:38.850Z,23.13
2018-03-31T12:47:06.345Z,23.60
2018-03-31T12:49:33.749Z,23.73
2018-03-31T12:52:03.743Z,25.43
2018-03-31T12:54:31.542Z,23.57
2018-03-31T12:56:58.912Z,23.30
2018-03-31T12:59:27.004Z,23.00
2018-03-31T13:01:54.356Z,24.37
2018-03-31T13:04:21.735Z,25.00
2018-03-31T13:06:49.089Z,23.33
2018-03-31T13:09:16.476Z,24.07
2018-03-31T13:11:43.839Z,25.37
2018-03-31T13:14:11.253Z,27.87
2018-03-31T13:16:38.601Z,24.20
2018-03-31T13:19:05.971Z,24.53
2018-03-31T13:21:33.381Z,25.77
2018-03-31T13:24:00.812Z,26.13
2018-03-31T13:26:28.181Z,24.57
2018-03-31T13:28:55.565Z,24.70
2018-03-31T13:31:22.969Z,25.20
2018-03-31T13:33:50.361Z,23.97
2018-03-31T13:36:17.741Z,25.00
2018-03-31T13:38:45.140Z,24.87
2018-03-31T13:41:15.288Z,25.20
2018-03-31T13:43:42.633Z,24.10
2018-03-31T13:46:10.010Z,24.43
2018-03-31T13:48:37.400Z,23.50
2018-03-31T13:51:04.752Z,24.97
2018-03-31T13:53:32.085Z,25.70
2018-03-31T13:55:59.432Z,23.70
2018-03-31T13:58:26.773Z,24.33
2018-03-31T14:00:54.142Z,24.40
2018-03-31T14:03:21.523Z,23.27
2018-03-31T14:05:48.904Z,24.97
2018-03-31T14:08:19.038Z,25.60
2018-03-31T14:10:46.473Z,24.47
2018-03-31T14:13:20.257Z,25.73
2018-03-31T14:15:47.641Z,27.07
2018-03-31T14:18:14.973Z,26.40
2018-03-31T14:20:42.573Z,26.20
2018-03-31T14:23:09.973Z,28.80
2018-03-31T14:25:37.436Z,26.73
2018-03-31T14:28:04.764Z,27.60
2018-03-31T14:30:32.136Z,27.30
2018-03-31T14:32:59.532Z,28.53
2018-03-31T14:35:26.982Z,28.20
2018-03-31T14:37:54.446Z,27.73
2018-03-31T14:40:21.832Z,27.67
2018-03-31T14:42:49.180Z,27.67
2018-03-31T14:45:16.559Z,27.20
2018-03-31T14:47:43.925Z,27.53
2018-03-31T14:50:11.320Z,27.90
2018-03-31T14:52:38.933Z,28.70
2018-03-31T14:55:06.350Z,28.33
2018-03-31T14:57:33.713Z,28.53
2018-03-31T15:00:01.212Z,30.00
2018-03-31T15:02:28.656Z,29.87
2018-03-31T15:04:56.061Z,30.03
2018-03-31T15:07:23.433Z,30.20
2018-03-31T15:09:50.778Z,28.30
2018-03-31T15:12:18.116Z,29.47
2018-03-31T15:14:45.451Z,29.90
2018-03-31T15:17:12.809Z,29.50
2018-03-31T15:19:40.136Z,30.30
2018-03-31T15:22:07.620Z,30.13
2018-03-31T15:24:35.003Z,27.73
2018-03-31T15:27:02.434Z,27.80
2018-03-31T15:29:29.946Z,28.73
2018-03-31T15:31:57.374Z,30.80
2018-03-31T15:34:24.749Z,28.80
2018-03-31T15:36:52.145Z,30.60
2018-03-31T15:39:19.635Z,29.07
2018-03-31T15:41:46.980Z,30.60
2018-03-31T15:44:14.334Z,30.87
2018-03-31T15:46:41.762Z,31.43
2018-03-31T15:49:09.096Z,30.27
2018-03-31T15:51:36.462Z,30.87
2018-03-31T15:54:03.825Z,30.50
2018-03-31T15:56:31.178Z,35.60
2018-03-31T15:58:58.542Z,33.37
2018-03-31T16:01:25.950Z,31.50
2018-03-31T16:03:53.411Z,32.60
2018-03-31T16:06:20.764Z,34.83
2018-03-31T16:08:48.132Z,35.33
2018-03-31T16:11:15.584Z,33.43
2018-03-31T16:13:43.241Z,33.80
2018-03-31T16:16:10.774Z,33.30
2018-03-31T16:18:38.150Z,34.00
2018-03-31T16:21:05.508Z,32.00
2018-03-31T16:23:32.897Z,32.07
2018-03-31T16:26:00.499Z,31.93
2018-03-31T16:28:28.062Z,32.10
2018-03-31T16:30:55.425Z,30.73
2018-03-31T16:33:22.760Z,30.23
2018-03-31T16:35:50.108Z,30.90
2018-03-31T16:38:17.481Z,30.23
2018-03-31T16:40:44.833Z,30.97
2018-03-31T16:43:12.201Z,30.50
2018-03-31T16:45:39.563Z,32.43
2018-03-31T16:48:06.908Z,32.60
2018-03-31T16:50:34.245Z,30.60
2018-03-31T16:53:01.598Z,32.37
2018-03-31T16:55:28.964Z,32.93
2018-03-31T16:57:56.607Z,31.87
2018-03-31T17:00:24.267Z,33.00
2018-03-31T17:02:51.688Z,33.43
2018-03-31T17:05:19.134Z,31.37
2018-03-31T17:07:46.570Z,30.33
2018-03-31T17:10:13.981Z,30.57
2018-03-31T17:12:41.341Z,32.47
2018-03-31T17:15:08.692Z,31.83
2018-03-31T17:17:36.232Z,33.03
2018-03-31T17:20:03.620Z,31.80
2018-03-31T17:22:30.983Z,33.27
2018-03-31T17:24:58.303Z,31.07
2018-03-31T17:27:26.049Z,32.00
2018-03-31T17:29:53.425Z,31.00
2018-03-31T17:32:20.845Z,31.40
2018-03-31T17:34:48.218Z,33.23
2018-03-31T17:37:15.587Z,31.93
2018-03-31T17:39:42.985Z,34.07
2018-03-31T17:42:10.546Z,33.57
2018-03-31T17:44:38.202Z,33.30
2018-03-31T17:47:05.620Z,35.00
2018-03-31T17:49:33.019Z,38.53
2018-03-31T17:52:00.394Z,41.47
2018-03-31T17:54:27.769Z,42.20
2018-03-31T17:56:55.150Z,42.13
2018-03-31T17:59:22.760Z,42.40
2018-03-31T18:01:50.183Z,41.80
2018-03-31T18:04:17.602Z,41.43
2018-03-31T18:06:45.028Z,40.20
2018-03-31T18:09:12.411Z,42.87
2018-03-31T18:11:39.781Z,40.13
2018-03-31T18:14:07.156Z,40.70
2018-03-31T18:16:34.523Z,40.23
2018-03-31T18:19:01.864Z,40.70
2018-03-31T18:21:29.237Z,39.33
2018-03-31T18:23:56.588Z,38.57
2018-03-31T18:26:24.003Z,39.90
2018-03-31T18:28:51.418Z,36.80
2018-03-31T18:31:18.942Z,36.73
2018-03-31T18:33:46.532Z,37.30
2018-03-31T18:36:13.947Z,33.60
2018-03-31T18:38:41.321Z,35.60
2018-03-31T18:41:08.700Z,37.63
2018-03-31T18:43:36.056Z,37.07
2018-03-31T18:46:03.466Z,35.97
2018-03-31T18:48:30.906Z,37.17
2018-03-31T18:50:58.267Z,36.10
2018-03-31T18:53:25.632Z,35.30
2018-03-31T18:55:53.027Z,36.20
2018-03-31T18:58:20.422Z,33.43
2018-03-31T19:00:47.839Z,33.30
2018-03-31T19:03:15.221Z,35.03
2018-03-31T19:05:42.626Z,34.30
2018-03-31T19:08:10.223Z,32.60
2018-03-31T19:10:37.689Z,35.37
2018-03-31T19:13:05.140Z,32.27
2018-03-31T19:15:32.505Z,30.87
2018-03-31T19:17:59.868Z,32.30
2018-03-31T19:20:27.278Z,31.40
2018-03-31T19:22:54.843Z,32.57
2018-03-31T19:25:26.511Z,32.80
2018-03-31T19:27:53.904Z,30.13
2018-03-31T19:30:25.487Z,30.53
2018-03-31T19:32:52.851Z,27.63
2018-03-31T19:35:20.224Z,29.30
2018-03-31T19:37:47.734Z,31.13
2018-03-31T19:40:15.094Z,27.50
2018-03-31T19:42:42.501Z,27.07
2018-03-31T19:45:09.907Z,27.20
2018-03-31T19:47:37.269Z,27.60
2018-03-31T19:50:04.914Z,29.50
2018-03-31T19:52:32.309Z,27.40
2018-03-31T19:54:59.693Z,26.97
2018-03-31T19:57:27.069Z,29.37
2018-03-31T19:59:54.414Z,29.83
2018-03-31T20:02:21.800Z,31.67
2018-03-31T20:04:49.270Z,31.23
2018-03-31T20:07:16.801Z,31.70
2018-03-31T20:09:44.176Z,32.97
2018-03-31T20:12:11.581Z,33.50
2018-03-31T20:14:38.962Z,32.53
2018-03-31T20:17:06.749Z,32.77
2018-03-31T20:19:39.853Z,32.10
2018-03-31T20:22:07.305Z,33.70
2018-03-31T20:24:34.744Z,33.43
2018-03-31T20:27:02.125Z,33.20
2018-03-31T20:29:29.962Z,31.17
2018-03-31T20:31:57.372Z,32.33
2018-03-31T20:34:25.700Z,33.50
2018-03-31T20:36:53.113Z,31.47
2018-03-31T20:39:20.468Z,29.90
2018-03-31T20:41:47.882Z,28.40
2018-03-31T20:44:15.225Z,29.40
2018-03-31T20:46:42.748Z,30.20
2018-03-31T20:49:10.094Z,28.97
2018-03-31T20:51:37.558Z,27.80
2018-03-31T20:54:04.925Z,25.90
2018-03-31T20:56:32.423Z,26.07
2018-03-31T20:58:59.745Z,27.00
2018-03-31T21:01:27.154Z,27.37
2018-03-31T21:03:54.569Z,26.60
2018-03-31T21:06:21.952Z,24.53
2018-03-31T21:08:49.314Z,25.60
2018-03-31T21:11:16.896Z,23.93
2018-03-31T21:13:44.261Z,24.87
2018-03-31T21:16:11.637Z,22.40
2018-03-31T21:18:39.181Z,21.87
2018-03-31T21:21:06.667Z,23.00
2018-03-31T21:23:34.020Z,22.47
2018-03-31T21:26:01.497Z,24.63
2018-03-31T21:28:28.861Z,23.40
2018-03-31T21:30:56.258Z,24.97
2018-03-31T21:33:23.617Z,22.80
2018-03-31T21:35:51.012Z,22.40
2018-03-31T21:38:18.409Z,23.43
2018-03-31T21:40:46.002Z,24.70
2018-03-31T21:43:13.360Z,20.57
2018-03-31T21:45:40.855Z,22.33
2018-03-31T21:48:08.441Z,19.87
2018-03-31T21:50:36.174Z,19.10
2018-03-31T21:53:03.554Z,21.60
2018-03-31T21:55:30.939Z,22.97
2018-03-31T21:57:58.272Z,21.73
2018-03-31T22:00:29.406Z,22.77
2018-03-31T22:02:56.889Z,21.40
2018-03-31T22:05:24.300Z,20.57
2018-03-31T22:07:51.697Z,21.30
2018-03-31T22:10:19.148Z,21.73
2018-03-31T22:12:46.578Z,21.37
2018-03-31T22:15:19.226Z,19.47
2018-03-31T22:17:46.639Z,19.23
2018-03-31T22:20:13.992Z,18.07
2018-03-31T22:22:40.741Z,17.20
2018-03-31T22:25:08.124Z,16.40
2018-03-31T22:27:35.592Z,15.77
2018-03-31T22:30:03.506Z,16.90
2018-03-31T22:32:30.880Z,16.20
2018-03-31T22:34:58.207Z,16.77
2018-03-31T22:37:25.636Z,15.87
2018-03-31T22:39:52.984Z,15.70
2018-03-31T22:42:20.570Z,17.50
2018-03-31T22:44:47.967Z,15.07
2018-03-31T22:47:15.338Z,14.40
2018-03-31T22:49:42.950Z,13.73
2018-03-31T22:52:10.317Z,13.63
2018-03-31T22:54:37.793Z,13.70
2018-03-31T22:57:05.209Z,14.23
2018-03-31T22:59:32.969Z,14.07
2018-03-31T23:02:00.378Z,15.60
2018-03-31T23:04:27.769Z,13.10
2018-03-31T23:06:55.147Z,12.60
2018-03-31T23:09:22.558Z,10.60
2018-03-31T23:11:50.184Z,10.43
2018-03-31T23:14:17.596Z,11.23
2018-03-31T23:16:44.986Z,10.37
2018-03-31T23:19:12.379Z,10.13
2018-03-31T23:21:39.750Z,10.03
2018-03-31T23:24:07.130Z,10.33
2018-03-31T23:26:34.495Z,10.20
2018-03-31T23:29:02.115Z,9.67
2018-03-31T23:31:29.464Z,11.17
2018-03-31T23:33:56.804Z,10.90
2018-03-31T23:36:24.162Z,10.57
2018-03-31T23:38:51.496Z,9.17
2018-03-31T23:41:18.844Z,9.40
2018-03-31T23:43:46.219Z,9.93
2018-03-31T23:46:13.651Z,10.43
2018-03-31T23:48:41.127Z,10.07
2018-03-31T23:51:08.491Z,9.50
2018-03-31T23:53:35.828Z,9.87
2018-03-31T23:56:03.234Z,9.90
2018-03-31T23:58:30.577Z,9.67
